Search METAR Data

METAR Data for ENKR:

ENKR 211320Z 27007KT 230V310 CAVOK 28/12 Q1015 RMK WIND 731FT 26012KT